Lakefield, Canada
Current Conditions -  °F | °C
As of 8:00 AM on Wednesday 22 Oct 2014 (Local Time) from CYPQ Reporting Station
Clear Clear  
Wind Chill: 32°   Ceiling: Unl
Heat Index: 37°   Visibility: 9mi
Dew Point: 34°   Wind: 7mph
Humidity: 87%   Direction: 10°N
Pressure: 30.25"   Gusts: NA
Location:  44.43°N, 78.27°W
Report Text: CYPQ 221200Z AUTO 01006KT 9SM CLR 03/01 A3025 RMK SLP249
Loading
Personal Weather Stations






























Interactive Weather Map New forecast layout! Learn more

10-Day Weather Forecast

Advertisements
Track Severe Weather on mobile